Time;durP1;ratioP1;P1;durP2;ratioP2;P2;SDS_P1;SDS_P2;PMS_P1;PMS_P2;Temp;Humidity;BMP_temperature;BMP_pressure;BME280_temperature;BME280_humidity;BME280_pressure;Samples;Min_cycle;Max_cycle;Signal;HPM_P1;HPM_P2
2021/07/04 00:00:32;;;;;;;6.63;5.00;;;537.80;2048.00;;;;;;5073199;28;20021;-62
2021/07/04 00:03:00;;;;;;;7.80;4.78;;;537.90;2048.00;;;;;;5075655;28;20474;-62
2021/07/04 00:05:35;;;;;;;7.25;5.15;;;537.80;2022.40;;;;;;5076148;28;20052;-62
2021/07/04 00:08:01;;;;;;;8.65;5.53;;;537.90;2022.40;;;;;;5058166;28;20373;-62
2021/07/04 00:10:33;;;;;;;9.35;5.03;;;537.90;2022.40;;;;;;5076408;28;20078;-62
2021/07/04 00:12:59;;;;;;;9.07;5.60;;;537.90;2022.40;;;;;;5076091;28;20020;-62
2021/07/04 00:15:27;;;;;;;7.55;5.30;;;537.80;2022.40;;;;;;5076397;28;20032;-62
2021/07/04 00:17:53;;;;;;;12.38;6.15;;;537.90;1996.80;;;;;;5075902;28;20158;-62
2021/07/04 00:20:21;;;;;;;8.85;5.05;;;537.90;2022.40;;;;;;5076085;28;20458;-61
2021/07/04 00:22:48;;;;;;;7.93;5.55;;;537.90;1996.80;;;;;;5070210;28;20028;-61
2021/07/04 00:25:15;;;;;;;8.05;5.53;;;537.90;2022.40;;;;;;5075123;28;20024;-61
2021/07/04 00:27:41;;;;;;;8.90;5.40;;;537.90;2022.40;;;;;;5057626;28;20068;-61
2021/07/04 00:30:10;;;;;;;8.77;5.38;;;537.90;2022.40;;;;;;5075832;28;20117;-61
2021/07/04 00:32:37;;;;;;;7.55;5.03;;;537.90;1996.80;;;;;;5075741;28;20039;-61
2021/07/04 00:35:05;;;;;;;7.15;5.15;;;537.90;2022.40;;;;;;5075964;28;20020;-61
2021/07/04 00:37:31;;;;;;;7.13;5.22;;;537.90;2022.40;;;;;;5075736;28;20025;-61
2021/07/04 00:39:56;;;;;;;8.05;5.50;;;537.80;2022.40;;;;;;5075634;28;20180;-61
2021/07/04 00:42:22;;;;;;;8.52;5.60;;;537.80;2022.40;;;;;;5075678;28;20127;-62
2021/07/04 00:44:48;;;;;;;9.68;5.60;;;537.80;2048.00;;;;;;5075903;28;20099;-61
2021/07/04 00:47:14;;;;;;;9.52;5.75;;;537.80;2048.00;;;;;;5075323;28;20036;-61
2021/07/04 00:49:42;;;;;;;7.43;5.45;;;537.80;2048.00;;;;;;5075624;28;20023;-61
2021/07/04 00:52:07;;;;;;;10.95;6.03;;;537.70;2048.00;;;;;;5075625;28;20035;-61
2021/07/04 00:54:34;;;;;;;7.93;5.90;;;537.70;2048.00;;;;;;5074799;28;20378;-61
2021/07/04 00:57:00;;;;;;;8.35;5.53;;;537.70;2073.60;;;;;;5075589;28;20029;-61
2021/07/04 00:59:26;;;;;;;7.38;5.40;;;537.70;2073.60;;;;;;5075303;28;20028;-61
2021/07/04 01:01:57;;;;;;;9.00;5.70;;;537.70;2073.60;;;;;;5075229;28;20351;-61
2021/07/04 01:04:23;;;;;;;9.75;5.88;;;537.70;2099.20;;;;;;5057248;28;20077;-61
2021/07/04 01:06:49;;;;;;;8.30;6.00;;;537.60;2099.20;;;;;;5074600;28;20465;-61
2021/07/04 01:09:14;;;;;;;9.07;5.53;;;537.60;2099.20;;;;;;5075230;28;20107;-61
2021/07/04 01:11:40;;;;;;;9.48;6.00;;;537.60;2099.20;;;;;;5057422;28;20386;-61
2021/07/04 01:14:06;;;;;;;7.97;5.47;;;537.60;2099.20;;;;;;5075072;28;20028;-61
2021/07/04 01:16:32;;;;;;;10.52;4.88;;;537.60;2073.60;;;;;;5074961;28;20036;-61
2021/07/04 01:18:58;;;;;;;10.65;5.40;;;512.90;2048.00;;;;;;5057460;28;20028;-61
2021/07/04 01:21:26;;;;;;;7.45;5.13;;;512.90;2048.00;;;;;;5056605;28;20124;-61
2021/07/04 01:23:52;;;;;;;10.15;4.90;;;512.90;2048.00;;;;;;5074953;28;20024;-61
2021/07/04 01:26:18;;;;;;;8.98;5.13;;;512.80;2048.00;;;;;;5074951;28;20420;-61
2021/07/04 01:28:44;;;;;;;8.18;5.25;;;512.70;2048.00;;;;;;5074280;28;20025;-61
2021/07/04 01:31:10;;;;;;;10.73;5.03;;;512.70;2048.00;;;;;;5074533;28;20046;-61
2021/07/04 01:33:36;;;;;;;9.18;5.72;;;512.60;2048.00;;;;;;5074639;28;20107;-61
2021/07/04 01:36:03;;;;;;;9.18;5.70;;;512.40;2073.60;;;;;;5073827;28;20027;-61
2021/07/04 01:38:29;;;;;;;9.10;5.60;;;512.20;2099.20;;;;;;5074380;28;20398;-61
2021/07/04 01:40:55;;;;;;;9.00;5.90;;;512.10;2124.80;;;;;;5074489;28;20023;-61
2021/07/04 01:43:21;;;;;;;9.07;5.78;;;512.00;2124.80;;;;;;5074076;28;20106;-61
2021/07/04 01:45:47;;;;;;;9.40;6.03;;;512.00;2150.40;;;;;;5074315;28;20029;-62
2021/07/04 01:48:14;;;;;;;11.10;5.95;;;487.30;2176.00;;;;;;5074504;28;20060;-61
2021/07/04 01:50:42;;;;;;;7.68;5.68;;;487.20;2176.00;;;;;;5074115;28;20570;-61
2021/07/04 01:53:08;;;;;;;9.85;6.30;;;487.10;2176.00;;;;;;5074180;28;20495;-61
2021/07/04 01:55:34;;;;;;;9.07;6.05;;;487.10;2176.00;;;;;;5074533;28;20032;-61
2021/07/04 01:58:00;;;;;;;9.30;6.03;;;487.10;2176.00;;;;;;5073950;28;20017;-61
2021/07/04 02:00:28;;;;;;;9.05;6.18;;;487.00;2201.60;;;;;;5074245;28;20024;-61
2021/07/04 02:02:55;;;;;;;10.23;6.15;;;487.00;2201.60;;;;;;5074199;28;20050;-61
2021/07/04 02:05:22;;;;;;;9.88;5.50;;;487.00;2201.60;;;;;;5074325;28;20085;-61
2021/07/04 02:07:49;;;;;;;10.73;6.50;;;487.00;2201.60;;;;;;5074027;28;20101;-62
2021/07/04 02:10:24;;;;;;;11.55;7.30;;;487.00;2176.00;;;;;;5074080;28;20478;-62
2021/07/04 02:12:50;;;;;;;11.15;7.10;;;487.00;2201.60;;;;;;5073866;28;20474;-62
2021/07/04 02:15:21;;;;;;;10.25;6.43;;;486.90;2201.60;;;;;;5074058;28;20375;-62
2021/07/04 02:17:47;;;;;;;10.52;7.18;;;486.90;2201.60;;;;;;5073982;28;20052;-62
2021/07/04 02:20:16;;;;;;;11.45;6.40;;;486.80;2252.80;;;;;;5073778;28;20479;-61
2021/07/04 02:22:42;;;;;;;11.88;6.63;;;486.60;2252.80;;;;;;5073705;28;20068;-62
2021/07/04 02:25:08;;;;;;;11.48;6.32;;;486.60;2252.80;;;;;;5073603;28;20056;-61
2021/07/04 02:27:34;;;;;;;8.50;6.10;;;486.70;2252.80;;;;;;5073710;28;20044;-61
2021/07/04 02:30:00;;;;;;;9.45;6.20;;;486.70;2252.80;;;;;;5056049;28;20044;-62
2021/07/04 02:32:25;;;;;;;13.75;6.55;;;486.70;2252.80;;;;;;5073635;28;20036;-61
2021/07/04 02:34:51;;;;;;;9.05;6.20;;;486.70;2252.80;;;;;;5073816;28;20089;-61
2021/07/04 02:37:17;;;;;;;9.13;6.00;;;486.70;2227.20;;;;;;5073592;28;20048;-61
2021/07/04 02:39:42;;;;;;;9.32;6.22;;;486.60;2227.20;;;;;;5073512;28;20017;-61
2021/07/04 02:42:08;;;;;;;9.75;5.90;;;486.60;2227.20;;;;;;5073596;28;20072;-61
2021/07/04 02:44:34;;;;;;;9.32;5.85;;;486.50;2201.60;;;;;;5074239;28;20467;-61
2021/07/04 02:47:00;;;;;;;9.20;5.88;;;486.50;2201.60;;;;;;5073522;28;20032;-61
2021/07/04 02:49:25;;;;;;;8.73;6.10;;;486.40;2227.20;;;;;;5073639;28;20513;-61
2021/07/04 02:51:51;;;;;;;8.20;5.97;;;486.40;2227.20;;;;;;5073414;28;20024;-62
2021/07/04 02:54:17;;;;;;;8.63;6.00;;;486.40;2227.20;;;;;;5073760;28;20048;-62
2021/07/04 02:56:42;;;;;;;12.65;6.20;;;486.40;2252.80;;;;;;5073393;28;20490;-61
2021/07/04 02:59:08;;;;;;;10.40;5.88;;;486.40;2252.80;;;;;;5073447;28;20024;-61
2021/07/04 03:01:34;;;;;;;9.85;5.97;;;486.40;2252.80;;;;;;5073332;28;20520;-62
2021/07/04 03:03:59;;;;;;;7.68;5.72;;;486.40;2252.80;;;;;;5073322;28;20143;-62
2021/07/04 03:06:25;;;;;;;9.80;6.00;;;461.70;2252.80;;;;;;5073273;28;20074;-61
2021/07/04 03:08:51;;;;;;;12.90;6.15;;;461.70;2252.80;;;;;;5073589;28;20025;-62
2021/07/04 03:11:16;;;;;;;8.30;5.50;;;461.70;2252.80;;;;;;5073190;28;20086;-61
2021/07/04 03:13:43;;;;;;;9.98;6.07;;;461.60;2252.80;;;;;;5073411;28;20036;-61
2021/07/04 03:16:09;;;;;;;9.57;5.70;;;461.60;2252.80;;;;;;5068898;28;20120;-61
2021/07/04 03:18:34;;;;;;;9.45;5.70;;;461.60;2252.80;;;;;;5073292;28;20135;-62
2021/07/04 03:21:00;;;;;;;9.27;6.30;;;461.60;2227.20;;;;;;5072772;28;20052;-61
2021/07/04 03:23:26;;;;;;;10.35;5.90;;;461.60;2252.80;;;;;;5073154;28;20040;-61
2021/07/04 03:25:54;;;;;;;10.75;5.85;;;461.60;2252.80;;;;;;5073284;28;20036;-62
2021/07/04 03:28:19;;;;;;;11.77;6.20;;;461.60;2252.80;;;;;;5055098;28;20029;-62
2021/07/04 03:30:45;;;;;;;10.55;5.35;;;461.60;2252.80;;;;;;5072751;28;20032;-61
2021/07/04 03:33:11;;;;;;;8.35;5.97;;;461.60;2252.80;;;;;;5073435;28;20036;-61
2021/07/04 03:35:36;;;;;;;9.32;5.72;;;461.70;2252.80;;;;;;5073545;28;20035;-62
2021/07/04 03:38:02;;;;;;;9.70;5.95;;;486.40;2252.80;;;;;;5073278;28;20080;-62
2021/07/04 03:40:28;;;;;;;8.40;5.65;;;486.40;2252.80;;;;;;5073016;28;20036;-62
2021/07/04 03:42:53;;;;;;;9.27;6.07;;;486.50;2252.80;;;;;;5072673;28;20483;-62
2021/07/04 03:45:19;;;;;;;9.25;6.15;;;486.50;2278.40;;;;;;5073186;28;20052;-61
2021/07/04 03:47:45;;;;;;;10.27;6.80;;;486.60;2252.80;;;;;;5072826;28;20037;-62
2021/07/04 03:50:12;;;;;;;10.70;6.53;;;486.60;2278.40;;;;;;5072912;28;20012;-61
2021/07/04 03:52:38;;;;;;;11.43;6.53;;;486.70;2278.40;;;;;;5072864;28;20103;-62
2021/07/04 03:55:05;;;;;;;8.95;5.82;;;486.70;2278.40;;;;;;5073142;28;20074;-62
2021/07/04 03:57:32;;;;;;;11.73;5.55;;;486.90;2252.80;;;;;;5072949;28;20028;-62
2021/07/04 03:59:59;;;;;;;11.68;6.25;;;486.90;2252.80;;;;;;5075191;28;20028;-62
2021/07/04 04:02:26;;;;;;;8.43;6.15;;;487.00;2227.20;;;;;;5058573;28;20028;-62
2021/07/04 04:04:56;;;;;;;10.40;6.07;;;487.10;2227.20;;;;;;5076412;28;20035;-62
2021/07/04 04:07:23;;;;;;;9.60;6.18;;;487.20;2201.60;;;;;;5076054;28;20036;-62
2021/07/04 04:09:51;;;;;;;10.60;6.35;;;487.30;2201.60;;;;;;5076252;28;20021;-62
2021/07/04 04:12:17;;;;;;;9.85;6.47;;;512.00;2201.60;;;;;;5076120;28;20090;-62
2021/07/04 04:14:42;;;;;;;9.02;5.80;;;512.10;2176.00;;;;;;5076089;28;20467;-62
2021/07/04 04:17:08;;;;;;;9.10;6.20;;;512.20;2176.00;;;;;;5076013;28;20036;-62
2021/07/04 04:19:34;;;;;;;8.27;5.95;;;512.20;2176.00;;;;;;5076201;28;20024;-62
2021/07/04 04:22:00;;;;;;;9.55;6.05;;;512.30;2176.00;;;;;;5076023;28;20020;-62
2021/07/04 04:24:26;;;;;;;9.63;6.00;;;512.40;2150.40;;;;;;5076009;28;20074;-62
2021/07/04 04:26:51;;;;;;;9.88;6.30;;;512.60;2150.40;;;;;;5075955;28;20429;-62
2021/07/04 04:29:17;;;;;;;9.50;5.65;;;512.60;2124.80;;;;;;5075823;28;20074;-62
2021/07/04 04:31:43;;;;;;;7.18;5.80;;;512.70;2099.20;;;;;;5058132;28;20036;-62
2021/07/04 04:34:10;;;;;;;8.45;6.10;;;512.80;2099.20;;;;;;5076056;28;20378;-62
2021/07/04 04:36:36;;;;;;;7.70;5.78;;;512.80;2073.60;;;;;;5075656;28;20017;-62
2021/07/04 04:39:03;;;;;;;10.32;5.88;;;512.90;2073.60;;;;;;5075730;28;20024;-61
2021/07/04 04:41:29;;;;;;;7.13;5.65;;;537.60;2099.20;;;;;;5075219;28;20033;-62
2021/07/04 04:43:55;;;;;;;9.15;5.47;;;537.70;2099.20;;;;;;5075683;28;20024;-62
2021/07/04 04:46:20;;;;;;;7.30;5.63;;;537.80;2073.60;;;;;;5075511;28;20060;-62
2021/07/04 04:48:47;;;;;;;8.32;5.50;;;537.90;2048.00;;;;;;5075091;28;20027;-62
2021/07/04 04:51:12;;;;;;;11.77;5.80;;;538.10;2048.00;;;;;;5075645;28;20454;-62
2021/07/04 04:53:38;;;;;;;6.18;5.20;;;538.30;2022.40;;;;;;5075422;28;20035;-62
2021/07/04 04:56:04;;;;;;;7.85;5.20;;;538.40;2022.40;;;;;;5057511;28;20077;-62
2021/07/04 04:58:30;;;;;;;6.47;5.03;;;538.50;2022.40;;;;;;5057349;28;20021;-62
2021/07/04 05:00:55;;;;;;;7.28;5.32;;;563.30;2022.40;;;;;;5075269;28;20035;-62
2021/07/04 05:03:21;;;;;;;7.30;5.68;;;563.40;1996.80;;;;;;5075510;28;20209;-62
2021/07/04 05:05:47;;;;;;;10.50;5.32;;;563.50;1996.80;;;;;;5075304;28;20374;-62
2021/07/04 05:08:14;;;;;;;7.85;5.45;;;563.60;1971.20;;;;;;5057188;28;20036;-62
2021/07/04 05:10:40;;;;;;;7.22;5.32;;;563.70;1971.20;;;;;;5057087;28;20525;-62
2021/07/04 05:13:06;;;;;;;7.03;5.32;;;563.70;1971.20;;;;;;5075039;28;20155;-62
2021/07/04 05:15:31;;;;;;;8.45;5.75;;;563.60;1971.20;;;;;;5075099;28;20025;-62
2021/07/04 05:17:57;;;;;;;8.45;5.35;;;563.60;1971.20;;;;;;5075172;28;20058;-62
2021/07/04 05:20:23;;;;;;;8.50;5.70;;;563.60;1996.80;;;;;;5075125;28;20471;-62
2021/07/04 05:22:48;;;;;;;8.63;5.80;;;563.50;1996.80;;;;;;5074873;28;20031;-62
2021/07/04 05:25:14;;;;;;;6.88;5.68;;;563.60;1971.20;;;;;;5074846;28;20025;-62
2021/07/04 05:27:40;;;;;;;7.80;5.60;;;563.60;1996.80;;;;;;5074737;28;20072;-62
2021/07/04 05:30:07;;;;;;;7.68;5.75;;;563.70;1996.80;;;;;;5074769;28;20032;-62
2021/07/04 05:32:33;;;;;;;5.93;5.20;;;563.80;1971.20;;;;;;5074809;28;20414;-62
2021/07/04 05:34:59;;;;;;;8.18;5.63;;;563.90;1971.20;;;;;;5074938;28;20027;-62
2021/07/04 05:37:25;;;;;;;8.82;5.63;;;563.90;1945.60;;;;;;5074532;28;20440;-62
2021/07/04 05:39:51;;;;;;;7.72;5.28;;;564.00;1920.00;;;;;;5074650;28;20020;-62
2021/07/04 05:42:17;;;;;;;8.98;5.07;;;564.10;1920.00;;;;;;5074393;28;20076;-61
2021/07/04 05:44:42;;;;;;;7.57;5.22;;;564.10;1920.00;;;;;;5074358;28;20052;-62
2021/07/04 05:47:08;;;;;;;8.18;5.45;;;588.80;1894.40;;;;;;5074464;28;20363;-62
2021/07/04 05:49:36;;;;;;;6.47;4.90;;;588.90;1894.40;;;;;;5074472;28;20034;-62
2021/07/04 05:52:03;;;;;;;6.70;4.60;;;589.00;1868.80;;;;;;5074167;28;20016;-62
2021/07/04 05:54:28;;;;;;;6.82;5.00;;;589.10;1843.20;;;;;;5074359;28;20522;-62
2021/07/04 05:56:54;;;;;;;7.85;4.97;;;589.20;1843.20;;;;;;5074150;28;20154;-61
2021/07/04 05:59:19;;;;;;;5.35;4.53;;;589.30;1817.60;;;;;;5074091;28;20501;-61
2021/07/04 06:01:47;;;;;;;8.13;4.93;;;589.50;1817.60;;;;;;5074326;28;20056;-61
2021/07/04 06:04:12;;;;;;;11.05;4.55;;;589.50;1792.00;;;;;;5056507;28;20043;-61
2021/07/04 06:06:38;;;;;;;6.07;4.57;;;589.60;1792.00;;;;;;5074024;28;20033;-61
2021/07/04 06:09:04;;;;;;;6.47;4.80;;;589.60;1740.80;;;;;;5055960;28;20016;-61
2021/07/04 06:11:29;;;;;;;6.40;4.93;;;589.70;1766.40;;;;;;5074210;28;20031;-62
2021/07/04 06:13:56;;;;;;;8.23;4.75;;;614.40;1740.80;;;;;;5073728;28;20031;-62
2021/07/04 06:16:21;;;;;;;7.15;5.45;;;614.50;1740.80;;;;;;5073887;28;20471;-62
2021/07/04 06:18:47;;;;;;;8.15;5.28;;;614.60;1740.80;;;;;;5074043;28;20090;-61
2021/07/04 06:21:13;;;;;;;8.77;4.80;;;614.70;1740.80;;;;;;5073677;28;20496;-62
2021/07/04 06:23:39;;;;;;;6.10;4.85;;;614.70;1715.20;;;;;;5073400;28;20032;-62
2021/07/04 06:26:05;;;;;;;6.38;4.80;;;614.80;1689.60;;;;;;5073626;28;20020;-62
2021/07/04 06:28:30;;;;;;;6.22;4.82;;;614.90;1715.20;;;;;;5073948;28;20199;-62
2021/07/04 06:30:56;;;;;;;6.93;4.57;;;615.00;1689.60;;;;;;5067887;28;20060;-62
2021/07/04 06:33:22;;;;;;;6.05;4.75;;;614.90;1664.00;;;;;;5063760;28;20025;-62
2021/07/04 06:35:47;;;;;;;7.55;5.00;;;615.20;1664.00;;;;;;5046574;28;20502;-62
2021/07/04 06:38:13;;;;;;;8.15;5.13;;;615.20;1638.40;;;;;;5063499;28;20024;-62
2021/07/04 06:40:39;;;;;;;7.78;4.88;;;640.00;1638.40;;;;;;5063019;28;20055;-61
2021/07/04 06:43:04;;;;;;;6.15;4.68;;;640.10;1587.20;;;;;;5043803;28;20137;-61
2021/07/04 06:45:30;;;;;;;6.93;4.63;;;640.20;1536.00;;;;;;5063855;28;20017;-62
2021/07/04 06:47:56;;;;;;;7.50;5.07;;;640.40;1510.40;;;;;;5062741;28;20033;-61
2021/07/04 06:50:22;;;;;;;5.55;4.20;;;640.50;1510.40;;;;;;5056344;28;20037;-63
2021/07/04 06:52:48;;;;;;;5.40;4.30;;;640.60;1484.80;;;;;;5053478;28;20032;-62
2021/07/04 06:55:15;;;;;;;5.40;4.35;;;640.80;1459.20;;;;;;5053451;28;20017;-62
2021/07/04 06:57:40;;;;;;;5.07;4.22;;;640.90;1484.80;;;;;;5063179;28;20024;-62
2021/07/04 07:00:09;;;;;;;5.93;4.28;;;665.70;1484.80;;;;;;5061276;28;20017;-62
2021/07/04 07:02:35;;;;;;;5.43;4.57;;;665.90;1433.60;;;;;;5061376;28;20062;-62
2021/07/04 07:05:03;;;;;;;6.47;4.65;;;665.90;1408.00;;;;;;5055893;28;20419;-62
2021/07/04 07:07:28;;;;;;;6.82;4.65;;;666.00;1433.60;;;;;;5052773;28;20063;-62
2021/07/04 07:09:54;;;;;;;7.03;4.20;;;666.10;1408.00;;;;;;5053371;28;20033;-62
2021/07/04 07:12:20;;;;;;;6.30;4.10;;;666.40;1408.00;;;;;;5053311;28;20028;-62
2021/07/04 07:14:46;;;;;;;5.63;3.65;;;666.40;1356.80;;;;;;5053275;28;20029;-62
2021/07/04 07:17:12;;;;;;;5.15;4.30;;;666.50;1331.20;;;;;;5052562;28;20415;-62
2021/07/04 07:19:38;;;;;;;4.30;3.70;;;666.50;1356.80;;;;;;5053275;28;20505;-62
2021/07/04 07:22:04;;;;;;;4.28;3.67;;;691.30;1331.20;;;;;;5053511;28;20029;-62
2021/07/04 07:24:30;;;;;;;4.55;3.67;;;691.50;1280.00;;;;;;5052943;28;20111;-62
2021/07/04 07:26:56;;;;;;;5.18;3.90;;;691.60;1305.60;;;;;;5053029;28;20121;-62
2021/07/04 07:29:21;;;;;;;6.05;3.63;;;691.70;1280.00;;;;;;5053499;28;20029;-62
2021/07/04 07:31:48;;;;;;;5.15;3.65;;;691.80;1254.40;;;;;;5035043;28;20089;-63
2021/07/04 07:34:14;;;;;;;6.20;4.07;;;692.10;1254.40;;;;;;5054468;28;20028;-62
2021/07/04 07:36:40;;;;;;;5.97;4.00;;;716.80;1228.80;;;;;;5057234;28;20094;-63
2021/07/04 07:39:06;;;;;;;4.45;3.88;;;716.90;1254.40;;;;;;5056781;28;20068;-61
2021/07/04 07:41:32;;;;;;;4.80;3.97;;;717.00;1228.80;;;;;;5056617;28;20065;-61
2021/07/04 07:43:59;;;;;;;5.55;4.00;;;717.00;1228.80;;;;;;5056725;28;20025;-61
2021/07/04 07:46:24;;;;;;;5.35;4.20;;;717.00;1203.20;;;;;;5056711;28;20033;-61
2021/07/04 07:48:50;;;;;;;5.63;4.15;;;717.00;1203.20;;;;;;5038885;28;20044;-61
2021/07/04 07:51:16;;;;;;;4.97;4.10;;;717.00;1228.80;;;;;;5056611;28;20021;-62
2021/07/04 07:53:43;;;;;;;4.68;4.13;;;717.10;1203.20;;;;;;5056571;28;20025;-62
2021/07/04 07:56:09;;;;;;;4.45;4.00;;;717.20;1228.80;;;;;;5056627;28;20023;-62
2021/07/04 07:58:35;;;;;;;5.88;4.07;;;717.20;1228.80;;;;;;5057469;28;20029;-62
2021/07/04 08:01:01;;;;;;;7.78;4.28;;;717.30;1203.20;;;;;;5038101;28;20486;-62
2021/07/04 08:03:27;;;;;;;5.75;4.10;;;717.40;1203.20;;;;;;5056295;28;20107;-62
2021/07/04 08:05:53;;;;;;;4.70;4.20;;;717.40;1203.20;;;;;;5056023;28;20057;-63
2021/07/04 08:08:19;;;;;;;6.07;3.88;;;717.50;1177.60;;;;;;5055847;28;20029;-63
2021/07/04 08:10:45;;;;;;;5.97;4.50;;;717.60;1228.80;;;;;;5056356;28;20071;-63
2021/07/04 08:13:10;;;;;;;5.50;4.32;;;717.70;1228.80;;;;;;5038420;28;20021;-62
2021/07/04 08:15:36;;;;;;;5.93;4.18;;;742.40;1254.40;;;;;;5056425;28;20051;-62
2021/07/04 08:18:02;;;;;;;5.80;4.20;;;742.40;1254.40;;;;;;5055850;28;20032;-62
2021/07/04 08:20:28;;;;;;;5.35;4.10;;;742.40;1203.20;;;;;;5038316;28;20029;-62
2021/07/04 08:22:54;;;;;;;7.70;4.40;;;742.50;1203.20;;;;;;5056033;28;20021;-62
2021/07/04 08:25:20;;;;;;;5.13;4.30;;;742.70;1228.80;;;;;;5055907;28;20025;-60
2021/07/04 08:27:46;;;;;;;4.97;4.10;;;742.80;1203.20;;;;;;5055839;28;20423;-61
2021/07/04 08:30:13;;;;;;;7.05;4.43;;;742.50;1203.20;;;;;;5055798;28;20021;-60
2021/07/04 08:32:39;;;;;;;5.78;4.22;;;742.60;1203.20;;;;;;5055713;28;20111;-60
2021/07/04 08:35:06;;;;;;;6.95;4.22;;;742.80;1228.80;;;;;;5055875;28;20022;-60
2021/07/04 08:37:32;;;;;;;4.97;4.47;;;742.90;1203.20;;;;;;5055562;28;20210;-61
2021/07/04 08:39:59;;;;;;;5.82;4.22;;;768.00;1203.20;;;;;;5055617;28;20025;-60
2021/07/04 08:42:24;;;;;;;5.32;4.20;;;768.30;1126.40;;;;;;5055844;28;20561;-60
2021/07/04 08:44:54;;;;;;;6.93;4.45;;;768.70;1152.00;;;;;;5054924;28;20057;-60
2021/07/04 08:47:21;;;;;;;4.85;4.15;;;793.60;1152.00;;;;;;5055456;28;20037;-60
2021/07/04 08:49:49;;;;;;;4.80;4.25;;;793.60;1126.40;;;;;;5055591;28;20028;-60
2021/07/04 08:52:15;;;;;;;5.63;3.70;;;793.70;1126.40;;;;;;5055781;28;20062;-60
2021/07/04 08:54:41;;;;;;;4.40;4.00;;;768.90;1075.20;;;;;;5037398;28;20175;-60
2021/07/04 08:57:11;;;;;;;4.90;3.70;;;793.70;1126.40;;;;;;5055651;28;20488;-60
2021/07/04 08:59:38;;;;;;;5.20;4.20;;;793.90;1075.20;;;;;;5055478;28;20032;-60
2021/07/04 09:02:06;;;;;;;5.93;4.30;;;794.00;1100.80;;;;;;5055243;28;20028;-61
2021/07/04 09:04:32;;;;;;;5.05;4.20;;;794.10;1075.20;;;;;;5055502;28;20033;-61
2021/07/04 09:07:00;;;;;;;4.75;4.20;;;794.30;1075.20;;;;;;5055313;28;20033;-61
2021/07/04 09:09:30;;;;;;;6.40;4.50;;;794.30;1075.20;;;;;;5055161;28;20079;-61
2021/07/04 09:12:00;;;;;;;5.97;4.10;;;794.10;1100.80;;;;;;5055259;28;20078;-62
2021/07/04 09:14:27;;;;;;;7.20;4.50;;;793.60;1100.80;;;;;;5054945;28;20112;-60
2021/07/04 09:16:53;;;;;;;5.72;4.60;;;768.80;1100.80;;;;;;5055040;28;20037;-60
2021/07/04 09:19:18;;;;;;;6.35;4.10;;;793.60;1075.20;;;;;;5055439;28;20079;-61
2021/07/04 09:21:55;;;;;;;6.97;4.32;;;793.70;1100.80;;;;;;5036970;28;20125;-61
2021/07/04 09:24:26;;;;;;;5.43;4.45;;;793.60;1100.80;;;;;;5054791;28;20090;-60
2021/07/04 09:26:52;;;;;;;5.50;4.30;;;768.70;1100.80;;;;;;5036943;28;20087;-61
2021/07/04 09:29:40;;;;;;;6.93;4.40;;;768.60;1075.20;;;;;;5071158;28;20028;-60
2021/07/04 09:32:28;;;;;;;6.13;4.15;;;793.60;1100.80;;;;;;5074673;28;20029;-60
2021/07/04 09:35:13;;;;;;;6.15;4.43;;;768.80;1075.20;;;;;;5057118;28;20036;-60
2021/07/04 09:37:44;;;;;;;5.60;4.53;;;768.90;1075.20;;;;;;5074212;28;20029;-60
2021/07/04 09:40:16;;;;;;;5.40;4.07;;;793.70;1126.40;;;;;;5074365;28;20082;-60
2021/07/04 09:43:23;;;;;;;6.82;4.85;;;794.10;1049.60;;;;;;5074375;28;20048;-61
2021/07/04 09:46:07;;;;;;;5.75;3.97;;;794.10;1075.20;;;;;;5069337;28;20040;-62
2021/07/04 09:48:37;;;;;;;5.00;3.93;;;794.30;1049.60;;;;;;5074474;28;20110;-60
2021/07/04 09:51:12;;;;;;;7.75;3.72;;;794.10;1024.00;;;;;;5074069;28;20257;-60
2021/07/04 09:53:40;;;;;;;5.25;3.70;;;794.50;1024.00;;;;;;5056162;28;20417;-60
2021/07/04 09:56:10;;;;;;;5.75;4.00;;;819.20;1024.00;;;;;;5073917;28;20029;-60
2021/07/04 09:58:37;;;;;;;7.45;4.00;;;819.20;1024.00;;;;;;5073773;28;20020;-59
2021/07/04 10:01:03;;;;;;;6.53;3.80;;;819.50;1049.60;;;;;;5073919;28;20040;-60
2021/07/04 10:03:29;;;;;;;4.63;3.95;;;819.70;998.40;;;;;;5074269;28;20028;-60
2021/07/04 10:05:55;;;;;;;6.20;4.05;;;819.50;972.80;;;;;;5073929;28;20533;-60
2021/07/04 10:08:34;;;;;;;5.68;3.90;;;819.70;947.20;;;;;;5073863;28;20044;-61
2021/07/04 10:11:26;;;;;;;5.93;3.90;;;819.50;972.80;;;;;;5056053;28;20020;-60
2021/07/04 10:13:52;;;;;;;5.32;3.50;;;819.70;947.20;;;;;;5069336;28;20513;-60
2021/07/04 10:16:18;;;;;;;7.50;3.70;;;819.70;998.40;;;;;;5067312;28;20053;-60
2021/07/04 10:18:48;;;;;;;5.03;3.90;;;819.80;972.80;;;;;;5054095;28;20459;-61
2021/07/04 10:21:14;;;;;;;5.63;3.78;;;820.10;947.20;;;;;;5053810;28;20032;-60
2021/07/04 10:23:47;;;;;;;5.88;3.75;;;844.80;972.80;;;;;;5053773;28;20028;-60
2021/07/04 10:26:14;;;;;;;5.95;3.80;;;845.10;972.80;;;;;;5053514;28;20545;-60
2021/07/04 10:28:42;;;;;;;6.68;3.55;;;845.30;947.20;;;;;;5053722;28;20029;-60
2021/07/04 10:31:19;;;;;;;4.45;3.50;;;845.30;947.20;;;;;;5053749;28;20108;-60
2021/07/04 10:33:45;;;;;;;4.80;3.88;;;845.30;972.80;;;;;;5053692;28;20029;-61
2021/07/04 10:36:18;;;;;;;6.55;4.00;;;844.80;972.80;;;;;;5053465;28;20060;-60
2021/07/04 10:38:54;;;;;;;4.97;3.75;;;820.00;972.80;;;;;;5053601;28;20013;-60
2021/07/04 10:41:32;;;;;;;5.00;3.75;;;820.10;972.80;;;;;;5053660;28;20029;-61
2021/07/04 10:44:06;;;;;;;6.38;4.00;;;820.00;972.80;;;;;;5053753;28;20032;-62
2021/07/04 10:46:42;;;;;;;5.10;4.10;;;820.00;972.80;;;;;;5053160;28;20029;-61
2021/07/04 10:49:13;;;;;;;9.57;4.00;;;820.00;972.80;;;;;;5035552;28;20029;-61
2021/07/04 10:52:07;;;;;;;5.65;3.90;;;819.70;972.80;;;;;;5053546;28;20378;-61
2021/07/04 10:54:39;;;;;;;4.95;3.88;;;819.40;998.40;;;;;;5053640;28;20029;-60
2021/07/04 10:57:13;;;;;;;7.40;4.07;;;819.60;998.40;;;;;;5053323;28;20025;-60
2021/07/04 11:00:01;;;;;;;5.22;3.85;;;819.80;972.80;;;;;;5053300;28;20025;-60
2021/07/04 11:02:46;;;;;;;4.32;3.92;;;819.80;972.80;;;;;;5044200;28;20024;-60
2021/07/04 11:05:21;;;;;;;5.20;4.18;;;820.00;947.20;;;;;;5072749;28;20111;-60
2021/07/04 11:07:52;;;;;;;4.85;3.78;;;819.80;947.20;;;;;;5073568;28;20386;-60
2021/07/04 11:10:21;;;;;;;6.03;3.80;;;844.80;972.80;;;;;;5077169;28;20028;-60
2021/07/04 11:12:48;;;;;;;4.32;3.92;;;845.20;947.20;;;;;;5077447;28;20025;-60
2021/07/04 11:15:13;;;;;;;5.57;3.72;;;845.30;947.20;;;;;;5077088;28;20425;-60
2021/07/04 11:18:01;;;;;;;6.57;3.90;;;845.10;947.20;;;;;;5077059;28;20079;-60
2021/07/04 11:20:43;;;;;;;4.65;3.85;;;845.30;921.60;;;;;;5077059;28;20099;-61
2021/07/04 11:23:27;;;;;;;5.82;3.70;;;845.60;921.60;;;;;;5074263;28;20055;-60
2021/07/04 11:25:59;;;;;;;;;;;870.50;896.00;;;;;;5066938;28;20024;-60
2021/07/04 11:28:35;;;;;;;6.05;4.38;;;870.40;921.60;;;;;;5047560;28;19959;-60
2021/07/04 11:31:07;;;;;;;4.63;3.90;;;870.50;896.00;;;;;;5065084;28;20024;-58
2021/07/04 11:33:55;;;;;;;4.28;3.70;;;870.40;896.00;;;;;;5064124;28;20055;-58
2021/07/04 11:36:26;;;;;;;4.07;3.67;;;845.60;870.40;;;;;;5056922;28;20029;-58
2021/07/04 11:38:56;;;;;;;4.68;4.13;;;845.40;896.00;;;;;;5067948;28;20024;-57
2021/07/04 11:41:50;;;;;;;5.25;3.90;;;845.30;921.60;;;;;;5057798;28;20517;-58
2021/07/04 11:44:18;;;;;;;6.72;3.97;;;845.50;896.00;;;;;;5054945;28;20040;-58
2021/07/04 11:46:51;;;;;;;6.15;4.05;;;845.10;947.20;;;;;;5065853;28;20554;-58
2021/07/04 11:49:19;;;;;;;5.72;3.83;;;819.60;972.80;;;;;;5063689;28;20028;-59
2021/07/04 11:51:48;;;;;;;5.10;3.80;;;819.70;972.80;;;;;;5065417;28;20032;-58
2021/07/04 11:54:32;;;;;;;4.82;3.25;;;844.80;947.20;;;;;;5041044;28;20074;-58
2021/07/04 11:59:56;;;;;;;4.22;3.40;;;819.50;947.20;;;;;;5058500;28;20040;-58
2021/07/04 12:02:23;;;;;;;5.93;3.38;;;845.00;947.20;;;;;;5056348;28;20386;-59
2021/07/04 12:04:48;;;;;;;5.55;3.28;;;845.40;896.00;;;;;;5056507;28;20379;-58
2021/07/04 12:07:16;;;;;;;4.40;3.28;;;845.60;870.40;;;;;;5055808;28;20040;-58
2021/07/04 12:09:49;;;;;;;3.92;3.30;;;845.70;870.40;;;;;;5064947;28;20031;-57
2021/07/04 12:12:19;;;;;;;3.55;3.10;;;845.20;870.40;;;;;;5038459;28;20036;-57
2021/07/04 12:14:47;;;;;;;4.18;3.03;;;845.10;870.40;;;;;;5056235;28;20021;-60
2021/07/04 12:17:25;;;;;;;4.63;3.22;;;845.30;870.40;;;;;;5051668;28;20033;-57
2021/07/04 12:20:03;;;;;;;4.45;3.00;;;845.10;844.80;;;;;;5065526;28;20013;-59
2021/07/04 12:22:56;;;;;;;5.30;3.00;;;845.30;844.80;;;;;;5057739;28;20027;-59
2021/07/04 12:25:28;;;;;;;4.32;3.20;;;845.30;870.40;;;;;;5047317;28;20090;-57